Time;durP1;ratioP1;P1;durP2;ratioP2;P2;SDS_P1;SDS_P2;PMS_P1;PMS_P2;Temp;Humidity;BMP_temperature;BMP_pressure;BME280_temperature;BME280_humidity;BME280_pressure;Samples;Min_cycle;Max_cycle;Signal;HPM_P1;HPM_P2
2022/04/24 00:01:43;;;;;;;;;18.25;15.00;;;;;16.50;50.52;99380.34;5077741;27;45260;-78
2022/04/24 00:04:09;;;;;;;;;13.50;13.50;;;;;16.60;50.82;99393.16;5077847;27;45315;-79
2022/04/24 00:06:34;;;;;;;;;14.00;13.33;;;;;16.63;50.45;99393.00;5077573;27;45949;-77
2022/04/24 00:09:01;;;;;;;;;14.00;14.00;;;;;16.54;50.36;99371.34;5077518;28;45583;-77
2022/04/24 00:11:26;;;;;;;;;13.75;13.25;;;;;15.78;50.36;99248.78;5081100;27;46708;-73
2022/04/24 00:13:52;;;;;;;;;17.25;11.75;;;;;16.63;50.71;99387.72;5097742;27;45489;-72
2022/04/24 00:16:18;;;;;;;;;13.50;11.50;;;;;16.27;50.19;99330.28;5091508;27;45530;-72
2022/04/24 00:18:44;;;;;;;;;14.25;11.75;;;;;16.52;50.64;99378.47;5077350;27;46285;-71
2022/04/24 00:21:09;;;;;;;;;11.67;11.67;;;;;16.49;50.53;99372.47;5092182;27;46268;-73
2022/04/24 00:23:35;;;;;;;;;14.75;14.00;;;;;16.59;50.63;99386.16;5094524;27;45565;-70
2022/04/24 00:26:01;;;;;;;;;14.00;10.33;;;;;16.43;50.19;99354.25;5077712;27;45480;-72
2022/04/24 00:28:26;;;;;;;;;15.75;12.50;;;;;16.18;50.40;99318.31;5076962;27;45326;-74
2022/04/24 00:30:52;;;;;;;;;15.00;13.00;;;;;16.50;50.66;99375.06;5075025;28;45394;-71
2022/04/24 00:33:18;;;;;;;;;11.33;11.00;;;;;16.57;50.57;99374.78;5077280;27;45890;-73
2022/04/24 00:35:43;;;;;;;;;17.00;11.75;;;;;16.46;50.53;99357.59;5077826;27;45587;-72
2022/04/24 00:38:09;;;;;;;;;17.50;11.75;;;;;16.58;50.58;99369.41;5075493;28;46479;-70
2022/04/24 00:40:34;;;;;;;;;18.00;13.50;;;;;16.59;50.85;99368.50;5084959;27;45388;-74
2022/04/24 00:43:00;;;;;;;;;11.33;10.67;;;;;16.15;50.74;99293.84;5077053;28;45483;-72
2022/04/24 00:45:26;;;;;;;;;14.00;12.25;;;;;16.68;50.49;99375.16;5077046;27;45531;-72
2022/04/24 00:47:51;;;;;;;;;14.25;13.00;;;;;16.65;50.50;99370.00;5076687;27;45401;-72
2022/04/24 00:50:17;;;;;;;;;18.67;15.67;;;;;16.59;50.38;99367.66;5076751;28;45435;-73
2022/04/24 00:52:43;;;;;;;;;13.25;12.50;;;;;16.67;50.51;99381.38;5076970;27;45495;-73
2022/04/24 00:55:09;;;;;;;;;13.33;12.67;;;;;16.64;50.80;99369.16;5076625;28;45491;-72
2022/04/24 00:57:35;;;;;;;;;13.25;13.25;;;;;16.69;50.39;99379.53;5074932;27;47033;-72
2022/04/24 01:00:01;;;;;;;;;12.00;11.00;;;;;16.51;50.35;99334.50;5076474;27;46001;-71
2022/04/24 01:02:26;;;;;;;;;12.67;12.33;;;;;16.85;50.50;99382.38;5076731;28;45496;-73
2022/04/24 01:04:52;;;;;;;;;14.33;12.67;;;;;16.81;50.13;99372.88;5076623;28;45440;-74
2022/04/24 01:07:18;;;;;;;;;11.67;11.67;;;;;16.94;50.25;99393.41;5076326;27;45441;-73
2022/04/24 01:09:44;;;;;;;;;17.67;14.67;;;;;16.59;50.13;99338.59;5077606;27;45715;-72
2022/04/24 01:12:09;;;;;;;;;13.67;12.33;;;;;16.35;50.03;99300.88;5076572;27;45373;-73
2022/04/24 01:14:36;;;;;;;;;14.00;12.00;;;;;16.81;50.18;99378.16;5076746;27;45528;-73
2022/04/24 01:17:04;;;;;;;;;13.33;13.33;;;;;16.84;49.76;99381.50;5076561;27;45425;-71
2022/04/24 01:19:30;;;;;;;;;14.00;13.50;;;;;16.64;49.63;99350.66;5079823;28;45428;-72
2022/04/24 01:21:58;;;;;;;;;15.00;12.67;;;;;16.92;49.71;99392.59;5079797;27;45417;-73
2022/04/24 01:24:26;;;;;;;;;16.00;14.25;;;;;16.83;49.72;99384.22;5079859;27;45450;-71
2022/04/24 01:26:52;;;;;;;;;13.67;13.67;;;;;16.92;49.76;99400.53;5079329;27;46096;-72
2022/04/24 01:29:19;;;;;;;;;12.33;12.33;;;;;16.84;49.64;99393.88;5079037;27;45474;-71
2022/04/24 01:31:45;;;;;;;;;13.33;11.33;;;;;16.89;49.58;99411.22;5082997;27;45958;-70
2022/04/24 01:34:12;;;;;;;;;15.00;13.75;;;;;16.87;49.43;99415.75;5100236;27;45526;-72
2022/04/24 01:36:38;;;;;;;;;13.00;12.00;;;;;16.64;49.86;99390.31;5099555;27;45472;-70
2022/04/24 01:39:07;;;;;;;;;14.00;13.00;;;;;16.79;49.66;99409.94;5099796;27;45413;-71
2022/04/24 01:41:33;;;;;;;;;13.00;11.67;;;;;16.72;49.64;99400.53;5100299;27;45362;-73
2022/04/24 01:43:59;;;;;;;;;14.75;12.75;;;;;16.78;49.41;99408.19;5100713;27;45391;-73
2022/04/24 01:46:25;;;;;;;;;16.67;14.33;;;;;16.86;49.14;99423.75;5100118;27;45519;-72
2022/04/24 01:48:51;;;;;;;;;16.33;12.67;;;;;16.81;49.52;99413.38;5100494;27;45392;-72
2022/04/24 01:51:17;;;;;;;;;12.00;12.00;;;;;16.77;49.11;99409.09;5100502;27;45292;-71
2022/04/24 01:53:44;;;;;;;;;10.33;10.00;;;;;16.57;49.39;99377.44;5100179;27;45344;-71
2022/04/24 01:56:11;;;;;;;;;12.33;11.33;;;;;16.83;49.35;99427.41;5099790;27;45431;-70
2022/04/24 01:58:38;;;;;;;;;13.00;11.00;;;;;16.87;49.06;99433.38;5102045;27;45359;-73
2022/04/24 02:01:05;;;;;;;;;16.75;11.50;;;;;16.46;49.55;99381.38;5101462;27;45486;-72
2022/04/24 02:03:32;;;;;;;;;13.33;13.33;;;;;16.59;49.82;99416.09;5101407;27;45247;-71
2022/04/24 02:05:58;;;;;;;;;13.67;11.67;;;;;16.68;49.32;99435.94;5099730;27;45616;-76
2022/04/24 02:08:24;;;;;;;;;12.67;10.00;;;;;16.64;49.37;99423.81;5099819;27;45346;-77
2022/04/24 02:10:51;;;;;;;;;14.67;13.00;;;;;16.62;49.67;99429.16;5099822;27;45470;-77
2022/04/24 02:13:17;;;;;;;;;12.67;12.00;;;;;16.61;49.43;99432.75;5100123;27;45470;-74
2022/04/24 02:15:43;;;;;;;;;12.33;11.33;;;;;16.57;49.20;99423.22;5099795;27;45605;-75
2022/04/24 02:18:08;;;;;;;;;11.67;11.00;;;;;16.51;49.13;99412.91;5099761;27;45338;-76
2022/04/24 02:20:34;;;;;;;;;11.33;11.00;;;;;16.58;49.65;99437.28;5099688;27;45347;-76
2022/04/24 02:23:01;;;;;;;;;14.33;11.33;;;;;16.57;49.20;99438.22;5098293;27;45941;-75
2022/04/24 02:25:27;;;;;;;;;13.67;12.33;;;;;16.48;49.00;99429.75;5099094;27;45311;-72
2022/04/24 02:27:55;;;;;;;;;13.00;13.00;;;;;16.53;49.38;99435.69;5098880;27;45531;-73
2022/04/24 02:30:25;;;;;;;;;16.50;13.00;;;;;16.54;48.95;99440.06;5101433;27;45332;-72
2022/04/24 02:32:51;;;;;;;;;14.25;12.75;;;;;16.50;48.93;99427.91;5084697;27;45333;-74
2022/04/24 02:35:17;;;;;;;;;12.75;12.75;;;;;16.55;48.94;99440.94;5078553;27;45646;-77
2022/04/24 02:37:44;;;;;;;;;14.00;13.25;;;;;16.53;49.01;99443.63;5078631;27;45323;-72
2022/04/24 02:40:11;;;;;;;;;13.00;13.00;;;;;16.54;48.78;99439.22;5079166;27;45593;-77
2022/04/24 02:42:40;;;;;;;;;14.33;11.33;;;;;16.48;48.73;99434.19;5079513;27;45356;-73
2022/04/24 02:45:07;;;;;;;;;13.00;11.67;;;;;16.47;48.73;99435.13;5078659;27;46155;-74
2022/04/24 02:47:33;;;;;;;;;13.67;12.00;;;;;16.58;49.02;99451.34;5094022;27;45343;-75
2022/04/24 02:49:59;;;;;;;;;12.33;12.33;;;;;16.43;48.65;99425.59;5072348;27;45693;-74
2022/04/24 02:52:25;;;;;;;;;16.33;13.33;;;;;16.54;48.58;99439.22;5069639;27;45396;-75
2022/04/24 02:54:51;;;;;;;;;11.33;11.00;;;;;16.54;48.21;99442.72;5069402;27;45444;-71
2022/04/24 02:57:17;;;;;;;;;14.33;13.00;;;;;16.22;48.03;99396.53;5058904;28;45424;-71
2022/04/24 02:59:44;;;;;;;;;11.33;10.33;;;;;16.48;48.18;99423.63;5058271;28;45607;-75
2022/04/24 03:02:12;;;;;;;;;12.33;10.67;;;;;16.63;48.20;99456.44;5058945;28;45554;-76
2022/04/24 03:04:39;;;;;;;;;10.67;9.67;;;;;16.21;48.10;99394.81;5059682;28;46056;-75
2022/04/24 03:07:04;;;;;;;;;14.33;10.33;;;;;16.64;47.92;99460.81;5061000;28;45267;-77
2022/04/24 03:09:30;;;;;;;;;13.33;13.33;;;;;16.24;47.97;99393.81;5062492;28;45976;-74
2022/04/24 03:11:56;;;;;;;;;12.50;11.50;;;;;16.61;48.06;99453.88;5077616;27;45468;-72
2022/04/24 03:14:21;;;;;;;;;16.67;11.67;;;;;16.45;48.10;99434.31;5071037;28;45448;-75
2022/04/24 03:16:47;;;;;;;;;13.67;11.33;;;;;16.61;48.17;99471.50;5082189;27;45565;-75
2022/04/24 03:19:13;;;;;;;;;13.67;11.00;;;;;16.61;48.39;99464.47;5081126;27;46170;-75
2022/04/24 03:21:38;;;;;;;;;8.67;7.67;;;;;16.62;48.85;99467.97;5077701;28;45399;-71
2022/04/24 03:24:04;;;;;;;;;15.00;13.00;;;;;16.27;48.63;99417.47;5080370;27;45364;-73
2022/04/24 03:26:30;;;;;;;;;12.00;12.00;;;;;16.59;48.64;99458.38;5082334;28;45294;-77
2022/04/24 03:28:57;;;;;;;;;15.00;13.25;;;;;16.64;48.83;99468.75;5081596;28;45508;-76
2022/04/24 03:31:23;;;;;;;;;13.75;11.25;;;;;16.65;48.42;99471.31;5079331;27;45585;-74
2022/04/24 03:33:50;;;;;;;;;15.33;12.67;;;;;16.37;48.32;99423.22;5079015;27;45349;-74
2022/04/24 03:36:16;;;;;;;;;12.33;11.33;;;;;16.65;48.33;99476.59;5079446;27;45450;-75
2022/04/24 03:38:41;;;;;;;;;13.00;12.33;;;;;16.57;48.45;99460.22;5060546;28;45622;-76
2022/04/24 03:41:08;;;;;;;;;13.50;12.75;;;;;16.45;48.01;99444.91;5061276;28;45675;-78
2022/04/24 03:43:34;;;;;;;;;12.50;10.75;;;;;16.61;48.13;99471.50;5061878;28;45344;-77
2022/04/24 03:46:01;;;;;;;;;18.00;16.25;;;;;16.65;48.37;99486.31;5063772;28;45285;-77
2022/04/24 03:48:27;;;;;;;;;13.50;13.50;;;;;16.65;48.34;99483.69;5060348;28;45231;-77
2022/04/24 03:50:55;;;;;;;;;15.25;13.50;;;;;16.64;47.94;99479.34;5059400;28;45215;-77
2022/04/24 03:53:21;;;;;;;;;14.50;11.50;;;;;16.58;48.12;99471.66;5057394;28;46087;-74
2022/04/24 03:55:46;;;;;;;;;12.50;12.50;;;;;16.37;48.35;99439.06;5058470;28;45594;-72
2022/04/24 03:58:12;;;;;;;;;12.67;12.67;;;;;16.65;48.19;99479.25;5058066;28;45535;-72
2022/04/24 04:00:37;;;;;;;;;13.75;13.50;;;;;16.16;48.38;99398.56;5057236;28;45846;-72
2022/04/24 04:03:03;;;;;;;;;11.25;11.25;;;;;16.64;47.90;99488.13;5057383;28;45504;-71
2022/04/24 04:05:29;;;;;;;;;11.33;10.33;;;;;16.64;48.01;99487.25;5057155;28;45526;-72
2022/04/24 04:07:55;;;;;;;;;14.00;13.00;;;;;16.60;47.80;99481.22;5062898;27;45500;-72
2022/04/24 04:10:22;;;;;;;;;15.00;12.00;;;;;16.44;47.64;99459.00;5079086;27;45392;-71
2022/04/24 04:12:50;;;;;;;;;14.00;11.50;;;;;16.59;47.98;99486.59;5077494;28;46790;-71
2022/04/24 04:15:15;;;;;;;;;12.75;11.75;;;;;16.61;47.91;99495.31;5079658;28;45401;-72
2022/04/24 04:17:57;;;;;;;;;14.00;12.50;;;;;16.61;47.67;99500.59;5074992;27;45374;-71
2022/04/24 04:20:22;;;;;;;;;13.25;12.50;;;;;16.60;48.05;99496.25;5077006;28;45425;-73
2022/04/24 04:22:51;;;;;;;;;14.25;12.75;;;;;16.57;48.04;99499.03;5077518;28;46620;-72
2022/04/24 04:25:18;;;;;;;;;16.75;12.50;;;;;16.61;47.92;99511.16;5083717;28;45404;-71
2022/04/24 04:27:43;;;;;;;;;14.00;12.67;;;;;16.37;47.96;99466.34;5078073;27;45408;-71
2022/04/24 04:30:18;;;;;;;;;11.00;11.00;;;;;16.60;47.79;99507.66;5076213;27;45435;-71
2022/04/24 04:32:44;;;;;;;;;12.00;12.00;;;;;16.59;47.87;99505.97;5090038;27;46847;-72
2022/04/24 04:35:10;;;;;;;;;14.50;13.50;;;;;16.56;48.08;99502.56;5097327;27;45669;-72
2022/04/24 04:37:37;;;;;;;;;15.00;15.00;;;;;16.57;47.88;99510.44;5097187;27;45471;-71
2022/04/24 04:40:11;;;;;;;;;14.00;14.00;;;;;16.50;47.81;99507.19;5074796;27;45207;-75
2022/04/24 04:42:38;;;;;;;;;19.25;14.00;;;;;16.52;48.07;99500.06;5075030;28;45300;-72
2022/04/24 04:45:06;;;;;;;;;13.25;13.25;;;;;16.38;47.74;99491.84;5056664;28;45225;-71
2022/04/24 04:47:31;;;;;;;;;18.00;13.25;;;;;16.48;48.09;99500.25;5056518;28;45491;-72
2022/04/24 04:49:57;;;;;;;;;15.25;13.75;;;;;16.46;47.80;99510.03;5055088;28;45570;-72
2022/04/24 04:52:23;;;;;;;;;12.67;10.67;;;;;16.45;48.06;99505.69;5057024;28;45551;-71
2022/04/24 04:54:49;;;;;;;;;15.75;15.50;;;;;16.53;47.99;99524.72;5060169;28;45499;-73
2022/04/24 04:57:16;;;;;;;;;17.75;13.50;;;;;16.48;48.09;99521.41;5060317;28;45342;-71
2022/04/24 04:59:42;;;;;;;;;15.75;13.25;;;;;16.42;48.10;99508.44;5059846;28;45196;-71
2022/04/24 05:02:07;;;;;;;;;13.00;11.50;;;;;16.52;47.85;99525.66;5059396;28;46397;-71
2022/04/24 05:04:33;;;;;;;;;12.25;11.25;;;;;16.43;48.26;99523.38;5059498;28;45373;-71
2022/04/24 05:06:58;;;;;;;;;17.50;13.25;;;;;16.44;47.92;99523.28;5060591;28;45456;-73
2022/04/24 05:09:24;;;;;;;;;19.50;15.50;;;;;16.48;47.88;99535.47;5061019;28;45461;-71
2022/04/24 05:11:50;;;;;;;;;15.75;12.75;;;;;16.55;47.88;99549.28;5060282;28;45508;-77
2022/04/24 05:14:16;;;;;;;;;16.50;14.00;;;;;16.53;47.71;99538.78;5059590;28;45508;-73
2022/04/24 05:16:42;;;;;;;;;16.50;13.25;;;;;16.53;47.84;99546.69;5060097;28;45413;-74
2022/04/24 05:19:07;;;;;;;;;14.25;11.50;;;;;16.58;47.64;99550.94;5060082;28;45464;-75
2022/04/24 05:21:34;;;;;;;;;15.25;11.75;;;;;16.26;47.61;99505.59;5059995;28;45291;-73
2022/04/24 05:24:00;;;;;;;;;19.50;14.75;;;;;16.49;47.18;99538.97;5060115;28;45416;-73
2022/04/24 05:26:26;;;;;;;;;15.50;15.25;;;;;16.37;47.47;99519.19;5059549;28;45321;-73
2022/04/24 05:28:52;;;;;;;;;15.00;14.25;;;;;16.44;47.42;99528.59;5059391;28;45495;-75
2022/04/24 05:31:19;;;;;;;;;14.00;12.75;;;;;16.61;47.71;99564.91;5059060;28;46256;-73
2022/04/24 05:33:44;;;;;;;;;18.00;14.50;;;;;16.64;47.32;99571.84;5079224;27;45425;-74
2022/04/24 05:36:10;;;;;;;;;15.75;15.25;;;;;16.63;47.43;99563.03;5079427;28;45591;-72
2022/04/24 05:38:36;;;;;;;;;19.50;17.50;;;;;16.48;47.31;99540.75;5079496;27;45603;-73
2022/04/24 05:41:05;;;;;;;;;16.00;14.25;;;;;16.71;47.18;99576.81;5079579;28;45420;-73
2022/04/24 05:43:31;;;;;;;;;19.50;15.25;;;;;16.64;47.70;99567.41;5079677;27;45525;-73
2022/04/24 05:45:57;;;;;;;;;15.50;14.50;;;;;16.70;47.80;99577.75;5079545;27;45522;-75
2022/04/24 05:48:22;;;;;;;;;15.25;14.25;;;;;16.37;47.49;99515.69;5079748;27;45472;-73
2022/04/24 05:50:48;;;;;;;;;19.00;15.75;;;;;16.78;47.38;99573.94;5079222;27;46233;-72
2022/04/24 05:53:14;;;;;;;;;16.50;16.50;;;;;16.81;47.22;99568.53;5079461;27;46158;-75
2022/04/24 05:55:40;;;;;;;;;20.75;15.75;;;;;16.83;47.27;99572.84;5079091;27;45544;-71
2022/04/24 05:58:06;;;;;;;;;24.25;18.00;;;;;16.89;46.89;99575.19;5079114;27;45402;-72
2022/04/24 06:00:32;;;;;;;;;17.50;17.50;;;;;16.89;46.94;99577.00;5079245;27;46087;-72
2022/04/24 06:02:57;;;;;;;;;15.33;15.33;;;;;16.47;46.93;99501.19;5078567;27;45385;-76
2022/04/24 06:05:23;;;;;;;;;16.00;16.00;;;;;16.94;46.78;99575.00;5079425;27;45460;-77
2022/04/24 06:07:50;;;;;;;;;19.25;17.75;;;;;16.59;46.50;99513.88;5079561;27;45427;-72
2022/04/24 06:10:16;;;;;;;;;17.00;15.50;;;;;16.93;46.48;99566.22;5079189;27;45568;-72
2022/04/24 06:12:50;;;;;;;;;18.25;15.50;;;;;17.10;46.43;99588.44;5078922;27;45452;-73
2022/04/24 06:15:17;;;;;;;;;19.25;15.75;;;;;17.10;46.42;99585.78;5076865;28;45524;-73
2022/04/24 06:17:47;;;;;;;;;15.75;12.75;;;;;17.19;46.47;99593.34;5078726;27;45337;-76
2022/04/24 06:20:14;;;;;;;;;14.00;12.00;;;;;17.19;46.09;99590.69;5078445;27;46001;-72
2022/04/24 06:22:48;;;;;;;;;17.50;17.00;;;;;16.93;46.08;99545.06;5077441;28;45479;-73
2022/04/24 06:25:31;;;;;;;;;20.00;18.25;;;;;17.32;45.83;99601.59;5068687;27;45556;-73
2022/04/24 06:27:57;;;;;;;;;20.00;18.25;;;;;17.36;45.90;99595.25;5076266;28;45552;-71
2022/04/24 06:30:25;;;;;;;;;21.25;17.00;;;;;17.32;46.04;99591.00;5078094;27;46184;-74
2022/04/24 06:32:56;;;;;;;;;17.75;17.50;;;;;17.25;45.77;99581.63;5066221;27;45978;-75
2022/04/24 06:35:22;;;;;;;;;23.00;17.25;;;;;17.47;45.71;99614.16;5059717;28;45504;-72
2022/04/24 06:37:51;;;;;;;;;23.50;20.00;;;;;17.50;45.47;99608.72;5078358;27;45475;-71
2022/04/24 06:40:19;;;;;;;;;21.00;19.25;;;;;17.06;45.56;99540.13;5077774;28;45629;-74
2022/04/24 06:42:51;;;;;;;;;16.67;14.33;;;;;17.57;45.29;99615.47;5093786;27;45543;-73
2022/04/24 06:45:24;;;;;;;;;19.00;16.67;;;;;17.62;45.39;99617.91;5078105;28;45626;-75
2022/04/24 06:47:53;;;;;;;;;19.33;18.67;;;;;17.47;45.30;99585.03;5078400;27;45551;-74
2022/04/24 06:50:23;;;;;;;;;21.33;19.00;;;;;17.69;45.32;99623.78;5078036;27;45446;-74
2022/04/24 06:53:03;;;;;;;;;22.33;18.67;;;;;17.68;45.20;99620.28;5078157;28;45405;-76
2022/04/24 06:55:30;;;;;;;;;22.25;17.75;;;;;17.73;45.03;99625.38;5078166;27;45520;-76
2022/04/24 06:57:57;;;;;;;;;20.67;17.00;;;;;17.77;45.26;99619.88;5078760;27;45218;-79
2022/04/24 07:00:24;;;;;;;;;16.25;16.25;;;;;17.73;45.23;99613.00;5076645;28;46603;-76
2022/04/24 07:02:52;;;;;;;;;25.25;21.00;;;;;17.76;44.91;99610.19;5078023;27;45401;-72
2022/04/24 07:05:24;;;;;;;;;25.00;18.00;;;;;17.85;44.58;99622.22;5078200;27;45323;-71
2022/04/24 07:07:49;;;;;;;;;25.50;21.50;;;;;17.89;44.62;99629.09;5072011;27;45453;-71
2022/04/24 07:10:16;;;;;;;;;22.25;21.00;;;;;17.86;44.48;99613.31;5078723;27;45541;-72
2022/04/24 07:12:52;;;;;;;;;26.75;24.25;;;;;17.77;44.62;99590.75;5077643;27;45403;-72
2022/04/24 07:15:19;;;;;;;;;25.33;21.00;;;;;17.86;44.44;99599.22;5059197;28;45410;-73
2022/04/24 07:17:46;;;;;;;;;24.00;20.00;;;;;17.85;44.07;99584.28;5059207;28;45364;-76
2022/04/24 07:20:15;;;;;;;;;24.50;20.50;;;;;18.07;43.89;99619.41;5061246;28;46013;-77
2022/04/24 07:22:52;;;;;;;;;23.00;21.00;;;;;18.18;43.67;99634.81;5058938;28;45421;-77
2022/04/24 07:25:20;;;;;;;;;24.00;21.50;;;;;18.17;43.73;99635.75;5065775;28;45373;-76
2022/04/24 07:27:47;;;;;;;;;30.75;24.00;;;;;18.09;43.76;99628.16;5069857;28;45143;-77
2022/04/24 07:30:14;;;;;;;;;23.25;21.50;;;;;18.25;43.54;99644.22;5060400;28;46085;-72
2022/04/24 07:32:42;;;;;;;;;23.50;20.25;;;;;18.05;43.39;99615.97;5082418;27;45444;-73
2022/04/24 07:35:14;;;;;;;;;24.75;24.50;;;;;18.28;43.45;99641.41;5098582;27;45554;-74
2022/04/24 07:37:40;;;;;;;;;26.25;25.75;;;;;18.36;43.38;99656.94;5099179;27;45474;-75
2022/04/24 07:40:08;;;;;;;;;23.75;20.25;;;;;18.39;43.44;99654.16;5099232;27;46237;-76
2022/04/24 07:42:50;;;;;;;;;26.00;25.00;;;;;18.36;43.36;99659.59;5098765;27;45430;-76
2022/04/24 07:45:28;;;;;;;;;32.00;26.25;;;;;18.28;43.81;99659.97;5098109;27;45418;-74
2022/04/24 07:47:55;;;;;;;;;25.50;22.75;;;;;18.31;43.48;99653.66;5100367;27;45211;-75
2022/04/24 07:50:23;;;;;;;;;30.25;26.00;;;;;17.72;43.78;99575.97;5101136;27;45566;-73
2022/04/24 07:52:49;;;;;;;;;29.00;24.00;;;;;17.85;44.02;99576.31;5098673;27;45435;-73
2022/04/24 07:55:17;;;;;;;;;20.33;20.33;;;;;18.24;43.76;99626.56;5097421;27;45341;-71
2022/04/24 07:57:44;;;;;;;;;27.50;23.75;;;;;18.43;43.36;99643.31;5098265;27;45313;-72
2022/04/24 08:00:11;;;;;;;;;27.00;24.50;;;;;18.59;43.28;99658.50;5098653;27;45471;-74
2022/04/24 08:03:01;;;;;;;;;24.67;23.67;;;;;18.67;43.29;99658.13;5099117;27;45375;-73
2022/04/24 08:05:43;;;;;;;;;24.67;24.67;;;;;18.58;43.14;99646.16;5098623;27;45494;-74
2022/04/24 08:08:11;;;;;;;;;27.25;24.25;;;;;18.30;42.71;99581.22;5099240;27;45436;-74
2022/04/24 08:10:38;;;;;;;;;28.00;24.33;;;;;18.80;42.83;99651.34;5098069;27;46579;-74
2022/04/24 08:13:05;;;;;;;;;28.25;25.50;;;;;18.93;42.37;99676.31;5097560;27;45598;-73
2022/04/24 08:15:34;;;;;;;;;28.67;25.67;;;;;18.47;42.48;99593.66;5098268;27;45391;-74
2022/04/24 08:18:00;;;;;;;;;29.00;25.33;;;;;18.68;42.59;99615.63;5103823;27;45834;-74
2022/04/24 08:20:26;;;;;;;;;30.00;27.00;;;;;19.00;42.60;99669.75;5101750;27;45321;-76
2022/04/24 08:22:54;;;;;;;;;28.75;27.25;;;;;18.78;42.39;99640.78;5096953;27;46063;-74
2022/04/24 08:25:22;;;;;;;;;31.67;28.00;;;;;19.05;42.66;99681.03;5098447;27;45529;-76
2022/04/24 08:27:49;;;;;;;;;34.25;26.25;;;;;19.02;42.67;99677.66;5098324;27;45539;-75
2022/04/24 08:30:18;;;;;;;;;30.25;27.50;;;;;18.78;42.56;99638.13;5097890;27;45691;-78
2022/04/24 08:32:45;;;;;;;;;32.25;28.25;;;;;18.49;42.73;99597.09;5085458;27;45556;-77
2022/04/24 08:35:12;;;;;;;;;31.75;28.75;;;;;18.69;42.60;99624.44;5078279;27;45511;-74
2022/04/24 08:37:38;;;;;;;;;33.00;31.25;;;;;18.35;41.99;99530.66;5077710;28;45485;-75
2022/04/24 08:40:06;;;;;;;;;32.00;27.25;;;;;19.21;42.11;99669.63;5076999;27;45491;-74
2022/04/24 08:42:33;;;;;;;;;34.75;29.25;;;;;19.23;41.73;99658.00;5077753;28;45394;-73
2022/04/24 08:45:00;;;;;;;;;32.50;27.75;;;;;19.38;41.51;99674.94;5077694;28;45326;-75
2022/04/24 08:47:27;;;;;;;;;32.75;30.25;;;;;19.43;41.07;99675.56;5078381;27;45282;-74
2022/04/24 08:49:58;;;;;;;;;40.00;32.00;;;;;19.03;41.04;99616.56;5078029;28;45467;-73
2022/04/24 08:52:27;;;;;;;;;35.25;29.50;;;;;19.05;40.92;99619.09;5077810;27;45380;-80
2022/04/24 08:54:53;;;;;;;;;34.25;30.25;;;;;19.38;40.96;99687.34;5078164;27;45467;-78
2022/04/24 08:57:20;;;;;;;;;33.50;31.50;;;;;18.88;40.47;99600.53;5077128;27;45359;-73
2022/04/24 08:59:46;;;;;;;;;35.75;29.00;;;;;19.43;40.93;99685.31;5076751;27;45545;-73
2022/04/24 09:02:12;;;;;;;;;44.75;34.00;;;;;19.47;40.74;99685.06;5077351;27;45489;-78
2022/04/24 09:04:40;;;;;;;;;33.25;31.00;;;;;19.50;40.37;99692.03;5076390;28;45545;-79
2022/04/24 09:07:08;;;;;;;;;35.50;30.50;;;;;19.46;40.88;99678.06;5078461;27;45455;-78
2022/04/24 09:09:42;;;;;;;;;27.67;24.67;;;;;19.30;40.55;99642.63;5074928;28;47345;-74
2022/04/24 09:12:14;;;;;;;;;35.50;29.75;;;;;19.44;40.22;99681.75;5076556;27;45345;-73
2022/04/24 09:14:41;;;;;;;;;29.00;25.67;;;;;19.35;40.22;99667.13;5076801;27;45502;-74
2022/04/24 09:17:18;;;;;;;;;33.25;30.00;;;;;19.37;39.65;99683.84;5076706;27;45392;-77
2022/04/24 09:19:44;;;;;;;;;32.00;28.33;;;;;19.26;39.55;99670.25;5075264;27;46831;-74
2022/04/24 09:22:11;;;;;;;;;29.33;25.33;;;;;19.31;39.75;99673.53;5078483;27;45454;-73
2022/04/24 09:24:48;;;;;;;;;34.67;25.67;;;;;18.84;39.93;99600.69;5078021;27;45359;-75
2022/04/24 09:27:30;;;;;;;;;27.33;23.33;;;;;19.28;40.08;99676.34;5075736;28;45275;-73
2022/04/24 09:29:59;;;;;;;;;29.67;23.67;;;;;19.34;40.67;99676.03;5076554;27;45384;-74
2022/04/24 09:32:27;;;;;;;;;33.00;30.00;;;;;19.46;39.93;99693.16;5075997;27;45501;-74
2022/04/24 09:34:53;;;;;;;;;25.00;24.00;;;;;18.77;40.09;99578.06;5076326;28;45397;-75
2022/04/24 09:37:20;;;;;;;;;26.67;25.33;;;;;19.54;40.19;99693.59;5076332;28;45489;-76
2022/04/24 09:39:46;;;;;;;;;26.67;24.00;;;;;19.68;40.35;99692.91;5079269;27;45387;-73
2022/04/24 09:42:15;;;;;;;;;36.67;26.00;;;;;19.76;39.93;99711.09;5079857;28;45456;-73
2022/04/24 09:44:51;;;;;;;;;27.67;26.67;;;;;19.86;39.89;99718.53;5079343;27;45258;-74
2022/04/24 09:47:22;;;;;;;;;23.33;22.67;;;;;19.31;39.54;99603.66;5079871;27;45453;-74
2022/04/24 09:49:50;;;;;;;;;28.67;24.67;;;;;19.57;39.90;99620.88;5078009;28;47338;-74
2022/04/24 09:52:25;;;;;;;;;34.33;27.67;;;;;19.90;39.24;99656.28;5079422;28;45498;-73
2022/04/24 09:54:52;;;;;;;;;26.67;25.00;;;;;19.97;38.83;99648.00;5079492;27;45435;-73
2022/04/24 09:57:22;;;;;;;;;28.67;25.00;;;;;20.50;39.62;99722.19;5082076;27;45388;-75
2022/04/24 09:59:50;;;;;;;;;26.33;23.00;;;;;20.29;39.40;99659.53;5079393;28;45451;-73
2022/04/24 10:02:18;;;;;;;;;28.33;25.33;;;;;20.45;39.13;99665.69;5079811;28;45490;-74
2022/04/24 10:04:45;;;;;;;;;28.67;26.33;;;;;20.89;38.75;99720.91;5080917;27;45369;-73
2022/04/24 10:07:13;;;;;;;;;30.67;25.67;;;;;20.53;38.31;99652.84;5079949;28;45412;-77
2022/04/24 10:09:44;;;;;;;;;28.00;23.67;;;;;20.64;37.96;99654.91;5080133;27;45373;-76
2022/04/24 10:12:11;;;;;;;;;27.67;24.67;;;;;21.12;37.94;99722.25;5078790;27;45392;-75
2022/04/24 10:14:50;;;;;;;;;25.00;24.67;;;;;20.64;37.63;99644.25;5079211;27;45518;-75
2022/04/24 10:17:36;;;;;;;;;29.67;26.00;;;;;21.16;37.32;99738.91;5079799;27;45389;-75
2022/04/24 10:20:18;;;;;;;;;27.33;24.33;;;;;21.22;38.50;99727.06;5078930;27;45767;-74
2022/04/24 10:22:50;;;;;;;;;31.00;25.33;;;;;21.24;37.89;99727.81;5078658;28;45510;-73
2022/04/24 10:25:16;;;;;;;;;24.00;22.67;;;;;20.83;37.27;99657.38;5078899;27;45551;-74
2022/04/24 10:27:45;;;;;;;;;23.00;22.33;;;;;21.34;37.55;99735.19;5080181;27;45376;-76
2022/04/24 10:30:18;;;;;;;;;27.67;24.00;;;;;21.53;37.03;99748.31;5076369;27;45537;-75
2022/04/24 10:32:46;;;;;;;;;23.67;22.33;;;;;20.83;36.88;99614.78;5084589;27;45476;-76
2022/04/24 10:35:20;;;;;;;;;29.33;26.33;;;;;21.58;37.00;99751.53;5081664;27;45456;-75
2022/04/24 10:37:51;;;;;;;;;31.33;30.67;;;;;21.13;36.98;99689.34;5080309;27;45559;-74
2022/04/24 10:40:19;;;;;;;;;32.00;29.67;;;;;21.24;36.84;99703.88;5081207;27;46001;-76
2022/04/24 10:42:46;;;;;;;;;28.33;24.00;;;;;21.30;36.78;99695.50;5081147;27;45431;-76
2022/04/24 10:45:20;;;;;;;;;26.00;23.00;;;;;21.75;36.94;99755.00;5080580;27;45550;-76
2022/04/24 10:47:48;;;;;;;;;24.00;21.00;;;;;21.67;36.73;99725.31;5082012;27;45461;-75
2022/04/24 10:50:18;;;;;;;;;27.00;25.00;;;;;21.61;37.00;99713.19;5080243;27;45564;-76
2022/04/24 10:52:45;;;;;;;;;24.33;24.33;;;;;21.61;36.83;99705.22;5080225;27;45422;-75
2022/04/24 10:55:16;;;;;;;;;25.33;23.33;;;;;22.03;36.95;99776.38;5078522;27;45376;-73
2022/04/24 10:57:48;;;;;;;;;25.33;24.00;;;;;21.98;36.58;99749.16;5077086;28;45464;-77
2022/04/24 11:00:25;;;;;;;;;22.00;19.00;;;;;21.81;36.77;99710.19;5077888;28;45410;-77
2022/04/24 11:02:52;;;;;;;;;30.33;24.67;;;;;21.86;36.68;99703.75;5076435;28;45621;-76
2022/04/24 11:05:21;;;;;;;;;26.67;25.33;;;;;22.23;36.33;99750.34;5079406;28;45275;-78
2022/04/24 11:07:48;;;;;;;;;28.00;23.33;;;;;22.33;36.39;99756.84;5077452;27;45519;-76
2022/04/24 11:10:20;;;;;;;;;25.33;20.67;;;;;22.44;36.37;99773.00;5077026;27;46544;-77
2022/04/24 11:12:48;;;;;;;;;24.00;22.33;;;;;21.87;35.73;99687.63;5080905;28;45445;-75
2022/04/24 11:15:14;;;;;;;;;23.00;20.33;;;;;21.97;36.01;99712.78;5078348;28;45491;-75
2022/04/24 11:17:42;;;;;;;;;24.00;20.00;;;;;21.89;35.28;99701.72;5077382;28;45278;-76
2022/04/24 11:20:10;;;;;;;;;21.00;19.33;;;;;22.16;35.92;99744.50;5078277;28;46609;-78